sensor_id;sensor_type;location;lat;lon;timestamp;P1;durP1;ratioP1;P2;durP2;ratioP2
64199;SDS011;50516;52.272;5.136;2022-07-06T00:01:31;6.38;;;2.30;;
64199;SDS011;50516;52.272;5.136;2022-07-06T00:03:56;6.90;;;2.70;;
64199;SDS011;50516;52.272;5.136;2022-07-06T00:06:22;4.68;;;2.40;;
64199;SDS011;50516;52.272;5.136;2022-07-06T00:08:48;3.75;;;2.20;;
64199;SDS011;50516;52.272;5.136;2022-07-06T00:11:13;5.32;;;2.33;;
64199;SDS011;50516;52.272;5.136;2022-07-06T00:13:39;4.82;;;2.58;;
64199;SDS011;50516;52.272;5.136;2022-07-06T00:16:04;6.22;;;2.50;;
64199;SDS011;50516;52.272;5.136;2022-07-06T00:18:30;5.63;;;2.47;;
64199;SDS011;50516;52.272;5.136;2022-07-06T00:20:55;4.47;;;2.35;;
64199;SDS011;50516;52.272;5.136;2022-07-06T00:23:21;4.20;;;2.30;;
64199;SDS011;50516;52.272;5.136;2022-07-06T00:25:46;5.15;;;2.33;;
64199;SDS011;50516;52.272;5.136;2022-07-06T00:28:13;3.35;;;2.25;;
64199;SDS011;50516;52.272;5.136;2022-07-06T00:30:39;6.05;;;2.30;;
64199;SDS011;50516;52.272;5.136;2022-07-06T00:33:04;7.03;;;2.70;;
64199;SDS011;50516;52.272;5.136;2022-07-06T00:35:29;8.90;;;3.63;;
64199;SDS011;50516;52.272;5.136;2022-07-06T00:37:55;4.45;;;2.50;;
64199;SDS011;50516;52.272;5.136;2022-07-06T00:40:20;4.93;;;2.15;;
64199;SDS011;50516;52.272;5.136;2022-07-06T00:42:46;4.20;;;2.65;;
64199;SDS011;50516;52.272;5.136;2022-07-06T00:45:13;7.40;;;2.50;;
64199;SDS011;50516;52.272;5.136;2022-07-06T00:47:40;6.28;;;2.38;;
64199;SDS011;50516;52.272;5.136;2022-07-06T00:50:07;7.88;;;2.30;;
64199;SDS011;50516;52.272;5.136;2022-07-06T00:52:40;4.63;;;2.30;;
64199;SDS011;50516;52.272;5.136;2022-07-06T00:55:07;5.57;;;2.05;;
64199;SDS011;50516;52.272;5.136;2022-07-06T00:57:34;4.65;;;2.33;;
64199;SDS011;50516;52.272;5.136;2022-07-06T01:00:00;3.90;;;2.30;;
64199;SDS011;50516;52.272;5.136;2022-07-06T01:02:30;6.18;;;2.65;;
64199;SDS011;50516;52.272;5.136;2022-07-06T01:05:00;6.70;;;2.15;;
64199;SDS011;50516;52.272;5.136;2022-07-06T01:07:25;5.50;;;2.40;;
64199;SDS011;50516;52.272;5.136;2022-07-06T01:09:52;4.38;;;2.10;;
64199;SDS011;50516;52.272;5.136;2022-07-06T01:12:18;4.63;;;2.15;;
64199;SDS011;50516;52.272;5.136;2022-07-06T01:14:44;5.75;;;2.10;;
64199;SDS011;50516;52.272;5.136;2022-07-06T01:17:10;7.82;;;2.20;;
64199;SDS011;50516;52.272;5.136;2022-07-06T01:19:35;3.53;;;2.13;;
64199;SDS011;50516;52.272;5.136;2022-07-06T01:22:01;3.05;;;1.92;;
64199;SDS011;50516;52.272;5.136;2022-07-06T01:24:27;3.60;;;1.92;;
64199;SDS011;50516;52.272;5.136;2022-07-06T01:26:52;3.95;;;1.90;;
64199;SDS011;50516;52.272;5.136;2022-07-06T01:29:18;3.50;;;2.28;;
64199;SDS011;50516;52.272;5.136;2022-07-06T01:31:45;4.40;;;2.03;;
64199;SDS011;50516;52.272;5.136;2022-07-06T01:34:13;4.30;;;2.40;;
64199;SDS011;50516;52.272;5.136;2022-07-06T01:36:39;6.07;;;2.33;;
64199;SDS011;50516;52.272;5.136;2022-07-06T01:39:04;5.55;;;2.13;;
64199;SDS011;50516;52.272;5.136;2022-07-06T01:41:30;6.72;;;2.40;;
64199;SDS011;50516;52.272;5.136;2022-07-06T01:43:55;3.92;;;2.17;;
64199;SDS011;50516;52.272;5.136;2022-07-06T01:46:21;5.20;;;2.33;;
64199;SDS011;50516;52.272;5.136;2022-07-06T01:48:46;3.15;;;2.08;;
64199;SDS011;50516;52.272;5.136;2022-07-06T01:51:12;5.00;;;2.47;;
64199;SDS011;50516;52.272;5.136;2022-07-06T01:53:38;4.40;;;2.15;;
64199;SDS011;50516;52.272;5.136;2022-07-06T01:56:06;5.70;;;2.30;;
64199;SDS011;50516;52.272;5.136;2022-07-06T01:58:31;7.95;;;1.95;;
64199;SDS011;50516;52.272;5.136;2022-07-06T02:00:57;5.47;;;2.30;;
64199;SDS011;50516;52.272;5.136;2022-07-06T02:03:22;5.60;;;2.40;;
64199;SDS011;50516;52.272;5.136;2022-07-06T02:05:48;7.65;;;2.65;;
64199;SDS011;50516;52.272;5.136;2022-07-06T02:08:13;9.50;;;2.90;;
64199;SDS011;50516;52.272;5.136;2022-07-06T02:10:39;6.75;;;2.63;;
64199;SDS011;50516;52.272;5.136;2022-07-06T02:13:05;5.40;;;2.50;;
64199;SDS011;50516;52.272;5.136;2022-07-06T02:15:30;7.95;;;2.30;;
64199;SDS011;50516;52.272;5.136;2022-07-06T02:17:56;10.85;;;2.58;;
64199;SDS011;50516;52.272;5.136;2022-07-06T02:20:21;5.88;;;2.10;;
64199;SDS011;50516;52.272;5.136;2022-07-06T02:22:46;7.05;;;2.35;;
64199;SDS011;50516;52.272;5.136;2022-07-06T02:25:12;9.63;;;2.50;;
64199;SDS011;50516;52.272;5.136;2022-07-06T02:27:37;3.60;;;2.22;;
64199;SDS011;50516;52.272;5.136;2022-07-06T02:30:03;8.05;;;2.40;;
64199;SDS011;50516;52.272;5.136;2022-07-06T02:32:30;7.78;;;2.17;;
64199;SDS011;50516;52.272;5.136;2022-07-06T02:34:55;3.75;;;2.05;;
64199;SDS011;50516;52.272;5.136;2022-07-06T02:37:21;7.90;;;2.47;;
64199;SDS011;50516;52.272;5.136;2022-07-06T02:39:46;5.85;;;2.13;;
64199;SDS011;50516;52.272;5.136;2022-07-06T02:42:11;7.30;;;1.95;;
64199;SDS011;50516;52.272;5.136;2022-07-06T02:44:37;4.32;;;2.30;;
64199;SDS011;50516;52.272;5.136;2022-07-06T02:47:02;6.35;;;2.05;;
64199;SDS011;50516;52.272;5.136;2022-07-06T02:49:28;2.95;;;1.75;;
64199;SDS011;50516;52.272;5.136;2022-07-06T02:51:53;4.50;;;2.08;;
64199;SDS011;50516;52.272;5.136;2022-07-06T02:54:18;3.47;;;2.00;;
64199;SDS011;50516;52.272;5.136;2022-07-06T02:56:44;5.22;;;2.10;;
64199;SDS011;50516;52.272;5.136;2022-07-06T02:59:13;2.35;;;1.80;;
64199;SDS011;50516;52.272;5.136;2022-07-06T03:01:38;4.38;;;1.75;;
64199;SDS011;50516;52.272;5.136;2022-07-06T03:04:03;4.45;;;1.80;;
64199;SDS011;50516;52.272;5.136;2022-07-06T03:06:29;3.25;;;1.90;;
64199;SDS011;50516;52.272;5.136;2022-07-06T03:08:54;5.15;;;2.00;;
64199;SDS011;50516;52.272;5.136;2022-07-06T03:11:19;5.82;;;2.10;;
64199;SDS011;50516;52.272;5.136;2022-07-06T03:13:45;4.45;;;1.90;;
64199;SDS011;50516;52.272;5.136;2022-07-06T03:16:10;4.40;;;1.73;;
64199;SDS011;50516;52.272;5.136;2022-07-06T03:18:35;5.47;;;1.77;;
64199;SDS011;50516;52.272;5.136;2022-07-06T03:21:04;3.70;;;1.48;;
64199;SDS011;50516;52.272;5.136;2022-07-06T03:23:30;6.82;;;1.95;;
64199;SDS011;50516;52.272;5.136;2022-07-06T03:25:55;4.85;;;1.92;;
64199;SDS011;50516;52.272;5.136;2022-07-06T03:28:21;4.00;;;1.80;;
64199;SDS011;50516;52.272;5.136;2022-07-06T03:30:46;2.17;;;1.70;;
64199;SDS011;50516;52.272;5.136;2022-07-06T03:33:11;5.45;;;2.10;;
64199;SDS011;50516;52.272;5.136;2022-07-06T03:35:37;3.50;;;1.45;;
64199;SDS011;50516;52.272;5.136;2022-07-06T03:38:02;3.17;;;1.70;;
64199;SDS011;50516;52.272;5.136;2022-07-06T03:40:28;3.17;;;1.80;;
64199;SDS011;50516;52.272;5.136;2022-07-06T03:42:53;4.93;;;1.60;;
64199;SDS011;50516;52.272;5.136;2022-07-06T03:45:19;3.70;;;1.80;;
64199;SDS011;50516;52.272;5.136;2022-07-06T03:47:44;4.82;;;2.05;;
64199;SDS011;50516;52.272;5.136;2022-07-06T03:50:09;3.90;;;1.75;;
64199;SDS011;50516;52.272;5.136;2022-07-06T03:52:35;5.43;;;1.98;;
64199;SDS011;50516;52.272;5.136;2022-07-06T03:55:04;5.00;;;2.00;;
64199;SDS011;50516;52.272;5.136;2022-07-06T03:57:32;5.75;;;1.83;;
64199;SDS011;50516;52.272;5.136;2022-07-06T03:59:57;6.70;;;2.28;;
64199;SDS011;50516;52.272;5.136;2022-07-06T04:02:23;7.82;;;1.85;;
64199;SDS011;50516;52.272;5.136;2022-07-06T04:04:48;4.28;;;2.03;;
64199;SDS011;50516;52.272;5.136;2022-07-06T04:07:13;4.95;;;1.85;;
64199;SDS011;50516;52.272;5.136;2022-07-06T04:09:39;5.53;;;2.00;;
64199;SDS011;50516;52.272;5.136;2022-07-06T04:12:04;3.25;;;1.60;;
64199;SDS011;50516;52.272;5.136;2022-07-06T04:14:29;4.05;;;1.83;;
64199;SDS011;50516;52.272;5.136;2022-07-06T04:16:55;8.45;;;1.92;;
64199;SDS011;50516;52.272;5.136;2022-07-06T04:19:20;5.40;;;2.20;;
64199;SDS011;50516;52.272;5.136;2022-07-06T04:21:45;6.45;;;2.10;;
64199;SDS011;50516;52.272;5.136;2022-07-06T04:24:11;7.80;;;1.85;;
64199;SDS011;50516;52.272;5.136;2022-07-06T04:26:36;7.35;;;2.20;;
64199;SDS011;50516;52.272;5.136;2022-07-06T04:29:01;3.78;;;2.22;;
64199;SDS011;50516;52.272;5.136;2022-07-06T04:31:27;8.82;;;2.13;;
64199;SDS011;50516;52.272;5.136;2022-07-06T04:33:52;6.53;;;1.85;;
64199;SDS011;50516;52.272;5.136;2022-07-06T04:36:18;2.22;;;1.70;;
64199;SDS011;50516;52.272;5.136;2022-07-06T04:38:43;6.70;;;2.25;;
64199;SDS011;50516;52.272;5.136;2022-07-06T04:41:08;6.82;;;2.10;;
64199;SDS011;50516;52.272;5.136;2022-07-06T04:43:34;7.78;;;1.70;;
64199;SDS011;50516;52.272;5.136;2022-07-06T04:45:59;5.75;;;1.90;;
64199;SDS011;50516;52.272;5.136;2022-07-06T04:48:26;4.80;;;2.28;;
64199;SDS011;50516;52.272;5.136;2022-07-06T04:50:51;4.80;;;2.33;;
64199;SDS011;50516;52.272;5.136;2022-07-06T04:53:17;2.95;;;1.60;;
64199;SDS011;50516;52.272;5.136;2022-07-06T04:55:42;4.25;;;1.88;;
64199;SDS011;50516;52.272;5.136;2022-07-06T04:58:07;3.83;;;1.98;;
64199;SDS011;50516;52.272;5.136;2022-07-06T05:00:33;4.60;;;1.90;;
64199;SDS011;50516;52.272;5.136;2022-07-06T05:02:58;6.88;;;2.15;;
64199;SDS011;50516;52.272;5.136;2022-07-06T05:05:23;8.75;;;2.05;;
64199;SDS011;50516;52.272;5.136;2022-07-06T05:07:49;5.85;;;2.00;;
64199;SDS011;50516;52.272;5.136;2022-07-06T05:10:14;6.40;;;2.17;;
64199;SDS011;50516;52.272;5.136;2022-07-06T05:12:40;6.72;;;2.00;;
64199;SDS011;50516;52.272;5.136;2022-07-06T05:15:05;4.38;;;1.90;;
64199;SDS011;50516;52.272;5.136;2022-07-06T05:17:32;4.75;;;1.98;;
64199;SDS011;50516;52.272;5.136;2022-07-06T05:19:57;4.75;;;1.83;;
64199;SDS011;50516;52.272;5.136;2022-07-06T05:22:23;4.72;;;2.00;;
64199;SDS011;50516;52.272;5.136;2022-07-06T05:24:49;4.05;;;1.73;;
64199;SDS011;50516;52.272;5.136;2022-07-06T05:27:14;5.03;;;2.03;;
64199;SDS011;50516;52.272;5.136;2022-07-06T05:29:40;7.30;;;1.85;;
64199;SDS011;50516;52.272;5.136;2022-07-06T05:32:05;3.15;;;1.58;;
64199;SDS011;50516;52.272;5.136;2022-07-06T05:34:31;5.90;;;1.58;;
64199;SDS011;50516;52.272;5.136;2022-07-06T05:36:56;2.60;;;1.70;;
64199;SDS011;50516;52.272;5.136;2022-07-06T05:39:22;6.00;;;1.70;;
64199;SDS011;50516;52.272;5.136;2022-07-06T05:41:48;2.75;;;1.58;;
64199;SDS011;50516;52.272;5.136;2022-07-06T05:44:13;5.97;;;2.00;;
64199;SDS011;50516;52.272;5.136;2022-07-06T05:46:39;4.07;;;1.77;;
64199;SDS011;50516;52.272;5.136;2022-07-06T05:49:05;8.77;;;3.47;;
64199;SDS011;50516;52.272;5.136;2022-07-06T05:51:48;6.75;;;1.83;;
64199;SDS011;50516;52.272;5.136;2022-07-06T05:54:14;6.38;;;1.80;;
64199;SDS011;50516;52.272;5.136;2022-07-06T05:56:40;5.63;;;1.63;;
64199;SDS011;50516;52.272;5.136;2022-07-06T05:59:05;4.97;;;1.65;;
64199;SDS011;50516;52.272;5.136;2022-07-06T06:01:30;5.45;;;1.90;;
64199;SDS011;50516;52.272;5.136;2022-07-06T06:03:56;5.00;;;1.70;;
64199;SDS011;50516;52.272;5.136;2022-07-06T06:06:21;5.18;;;1.52;;
64199;SDS011;50516;52.272;5.136;2022-07-06T06:08:47;7.13;;;1.70;;
64199;SDS011;50516;52.272;5.136;2022-07-06T06:11:12;5.68;;;1.70;;
64199;SDS011;50516;52.272;5.136;2022-07-06T06:13:37;4.43;;;1.60;;
64199;SDS011;50516;52.272;5.136;2022-07-06T06:16:03;5.75;;;1.70;;
64199;SDS011;50516;52.272;5.136;2022-07-06T06:18:28;7.03;;;1.50;;
64199;SDS011;50516;52.272;5.136;2022-07-06T06:20:53;6.45;;;2.10;;
64199;SDS011;50516;52.272;5.136;2022-07-06T06:23:19;7.40;;;1.67;;
64199;SDS011;50516;52.272;5.136;2022-07-06T06:25:44;4.80;;;2.20;;
64199;SDS011;50516;52.272;5.136;2022-07-06T06:28:10;5.65;;;2.28;;
64199;SDS011;50516;52.272;5.136;2022-07-06T06:30:36;5.38;;;2.03;;
64199;SDS011;50516;52.272;5.136;2022-07-06T06:33:06;4.45;;;2.20;;
64199;SDS011;50516;52.272;5.136;2022-07-06T06:35:32;5.63;;;2.58;;
64199;SDS011;50516;52.272;5.136;2022-07-06T06:37:58;3.05;;;1.40;;
64199;SDS011;50516;52.272;5.136;2022-07-06T06:40:23;3.97;;;1.38;;
64199;SDS011;50516;52.272;5.136;2022-07-06T06:42:48;6.82;;;1.80;;
64199;SDS011;50516;52.272;5.136;2022-07-06T06:45:14;4.80;;;2.03;;
64199;SDS011;50516;52.272;5.136;2022-07-06T06:47:39;4.03;;;1.80;;
64199;SDS011;50516;52.272;5.136;2022-07-06T06:50:04;3.65;;;1.38;;
64199;SDS011;50516;52.272;5.136;2022-07-06T06:52:30;3.35;;;1.80;;
64199;SDS011;50516;52.272;5.136;2022-07-06T06:54:55;5.10;;;1.60;;
64199;SDS011;50516;52.272;5.136;2022-07-06T06:57:21;8.27;;;2.58;;
64199;SDS011;50516;52.272;5.136;2022-07-06T06:59:46;7.72;;;1.80;;
64199;SDS011;50516;52.272;5.136;2022-07-06T07:02:11;5.70;;;1.98;;
64199;SDS011;50516;52.272;5.136;2022-07-06T07:04:37;5.15;;;2.13;;
64199;SDS011;50516;52.272;5.136;2022-07-06T07:07:02;5.15;;;1.80;;
64199;SDS011;50516;52.272;5.136;2022-07-06T07:09:28;5.95;;;1.67;;
64199;SDS011;50516;52.272;5.136;2022-07-06T07:11:53;4.88;;;2.35;;
64199;SDS011;50516;52.272;5.136;2022-07-06T07:14:19;2.97;;;1.42;;
64199;SDS011;50516;52.272;5.136;2022-07-06T07:16:45;6.40;;;2.30;;
64199;SDS011;50516;52.272;5.136;2022-07-06T07:19:10;5.82;;;1.92;;
64199;SDS011;50516;52.272;5.136;2022-07-06T07:21:36;5.68;;;2.15;;
64199;SDS011;50516;52.272;5.136;2022-07-06T07:24:01;6.50;;;2.50;;
64199;SDS011;50516;52.272;5.136;2022-07-06T07:26:26;3.05;;;1.55;;
64199;SDS011;50516;52.272;5.136;2022-07-06T07:28:52;4.22;;;1.70;;
64199;SDS011;50516;52.272;5.136;2022-07-06T07:31:17;3.20;;;1.58;;
64199;SDS011;50516;52.272;5.136;2022-07-06T07:33:43;5.43;;;1.52;;
64199;SDS011;50516;52.272;5.136;2022-07-06T07:36:08;4.82;;;1.63;;
64199;SDS011;50516;52.272;5.136;2022-07-06T07:38:33;3.65;;;2.00;;
64199;SDS011;50516;52.272;5.136;2022-07-06T07:40:59;4.55;;;1.73;;
64199;SDS011;50516;52.272;5.136;2022-07-06T07:43:24;3.50;;;1.60;;
64199;SDS011;50516;52.272;5.136;2022-07-06T07:45:49;6.00;;;1.50;;
64199;SDS011;50516;52.272;5.136;2022-07-06T07:48:15;5.22;;;1.77;;
64199;SDS011;50516;52.272;5.136;2022-07-06T07:50:40;4.05;;;1.70;;
64199;SDS011;50516;52.272;5.136;2022-07-06T07:53:06;4.63;;;1.75;;
64199;SDS011;50516;52.272;5.136;2022-07-06T07:55:31;10.00;;;2.58;;
64199;SDS011;50516;52.272;5.136;2022-07-06T07:57:57;3.60;;;1.75;;
64199;SDS011;50516;52.272;5.136;2022-07-06T08:00:22;3.83;;;1.70;;
64199;SDS011;50516;52.272;5.136;2022-07-06T08:02:49;3.38;;;1.70;;
64199;SDS011;50516;52.272;5.136;2022-07-06T08:05:15;4.68;;;1.75;;
64199;SDS011;50516;52.272;5.136;2022-07-06T08:07:43;3.13;;;1.70;;
64199;SDS011;50516;52.272;5.136;2022-07-06T08:10:09;2.55;;;1.50;;
64199;SDS011;50516;52.272;5.136;2022-07-06T08:12:35;5.28;;;1.73;;
64199;SDS011;50516;52.272;5.136;2022-07-06T08:15:00;4.70;;;1.83;;
64199;SDS011;50516;52.272;5.136;2022-07-06T08:17:26;3.97;;;1.50;;
64199;SDS011;50516;52.272;5.136;2022-07-06T08:19:51;2.47;;;1.83;;
64199;SDS011;50516;52.272;5.136;2022-07-06T08:22:17;2.47;;;1.40;;
64199;SDS011;50516;52.272;5.136;2022-07-06T08:24:42;5.15;;;1.60;;
64199;SDS011;50516;52.272;5.136;2022-07-06T08:27:08;4.05;;;1.98;;
64199;SDS011;50516;52.272;5.136;2022-07-06T08:29:33;2.28;;;1.20;;
64199;SDS011;50516;52.272;5.136;2022-07-06T08:31:58;3.60;;;1.60;;
64199;SDS011;50516;52.272;5.136;2022-07-06T08:34:24;4.65;;;1.42;;
64199;SDS011;50516;52.272;5.136;2022-07-06T08:36:49;6.30;;;2.08;;
64199;SDS011;50516;52.272;5.136;2022-07-06T08:39:15;7.20;;;1.90;;
64199;SDS011;50516;52.272;5.136;2022-07-06T08:41:41;1.88;;;1.23;;
64199;SDS011;50516;52.272;5.136;2022-07-06T08:44:08;3.30;;;1.70;;
64199;SDS011;50516;52.272;5.136;2022-07-06T08:46:35;2.28;;;1.63;;
64199;SDS011;50516;52.272;5.136;2022-07-06T08:49:03;2.85;;;1.60;;
64199;SDS011;50516;52.272;5.136;2022-07-06T08:51:32;3.33;;;1.50;;
64199;SDS011;50516;52.272;5.136;2022-07-06T08:54:00;2.50;;;1.52;;
64199;SDS011;50516;52.272;5.136;2022-07-06T08:56:28;3.83;;;1.65;;
64199;SDS011;50516;52.272;5.136;2022-07-06T08:58:54;3.17;;;1.20;;
64199;SDS011;50516;52.272;5.136;2022-07-06T09:01:21;5.70;;;1.25;;
64199;SDS011;50516;52.272;5.136;2022-07-06T09:03:46;2.42;;;1.30;;
64199;SDS011;50516;52.272;5.136;2022-07-06T09:06:16;3.22;;;1.27;;
64199;SDS011;50516;52.272;5.136;2022-07-06T09:08:44;5.15;;;1.67;;
64199;SDS011;50516;52.272;5.136;2022-07-06T09:11:10;3.78;;;1.40;;
64199;SDS011;50516;52.272;5.136;2022-07-06T09:13:36;3.78;;;1.55;;
64199;SDS011;50516;52.272;5.136;2022-07-06T09:16:11;1.90;;;1.30;;
64199;SDS011;50516;52.272;5.136;2022-07-06T09:18:38;2.45;;;1.27;;
64199;SDS011;50516;52.272;5.136;2022-07-06T09:21:05;5.78;;;1.25;;
64199;SDS011;50516;52.272;5.136;2022-07-06T09:23:30;1.73;;;1.10;;
64199;SDS011;50516;52.272;5.136;2022-07-06T09:25:56;3.35;;;1.42;;
64199;SDS011;50516;52.272;5.136;2022-07-06T09:28:22;1.98;;;1.30;;
64199;SDS011;50516;52.272;5.136;2022-07-06T09:30:47;3.95;;;1.33;;
64199;SDS011;50516;52.272;5.136;2022-07-06T09:33:12;1.67;;;1.10;;
64199;SDS011;50516;52.272;5.136;2022-07-06T09:35:43;1.50;;;0.85;;
64199;SDS011;50516;52.272;5.136;2022-07-06T09:38:11;4.15;;;1.67;;
64199;SDS011;50516;52.272;5.136;2022-07-06T09:40:42;3.33;;;1.25;;
64199;SDS011;50516;52.272;5.136;2022-07-06T09:43:15;3.40;;;1.30;;
64199;SDS011;50516;52.272;5.136;2022-07-06T09:45:43;3.33;;;1.40;;
64199;SDS011;50516;52.272;5.136;2022-07-06T09:48:25;0.85;;;0.82;;
64199;SDS011;50516;52.272;5.136;2022-07-06T09:50:56;2.92;;;1.30;;
64199;SDS011;50516;52.272;5.136;2022-07-06T09:58:19;2.22;;;1.23;;
64199;SDS011;50516;52.272;5.136;2022-07-06T10:00:45;4.95;;;1.60;;
64199;SDS011;50516;52.272;5.136;2022-07-06T10:03:11;3.78;;;1.38;;
64199;SDS011;50516;52.272;5.136;2022-07-06T10:05:38;1.52;;;0.98;;
64199;SDS011;50516;52.272;5.136;2022-07-06T10:08:06;2.22;;;1.23;;
64199;SDS011;50516;52.272;5.136;2022-07-06T10:10:34;4.20;;;1.60;;
64199;SDS011;50516;52.272;5.136;2022-07-06T10:13:01;1.73;;;0.82;;
64199;SDS011;50516;52.272;5.136;2022-07-06T10:15:28;2.08;;;1.08;;
64199;SDS011;50516;52.272;5.136;2022-07-06T10:17:57;2.97;;;1.08;;
64199;SDS011;50516;52.272;5.136;2022-07-06T10:20:23;2.63;;;1.20;;
64199;SDS011;50516;52.272;5.136;2022-07-06T10:22:50;0.93;;;0.88;;
64199;SDS011;50516;52.272;5.136;2022-07-06T10:25:16;4.03;;;1.50;;
64199;SDS011;50516;52.272;5.136;2022-07-06T10:27:42;2.80;;;1.13;;
64199;SDS011;50516;52.272;5.136;2022-07-06T10:30:10;1.83;;;1.20;;
64199;SDS011;50516;52.272;5.136;2022-07-06T10:32:36;3.45;;;1.75;;
64199;SDS011;50516;52.272;5.136;2022-07-06T10:35:03;3.10;;;1.63;;
64199;SDS011;50516;52.272;5.136;2022-07-06T10:37:29;2.30;;;1.20;;
64199;SDS011;50516;52.272;5.136;2022-07-06T10:39:57;2.45;;;1.15;;
64199;SDS011;50516;52.272;5.136;2022-07-06T10:42:42;3.05;;;1.40;;
64199;SDS011;50516;52.272;5.136;2022-07-06T10:45:11;3.47;;;1.20;;
64199;SDS011;50516;52.272;5.136;2022-07-06T10:47:39;2.92;;;1.35;;
64199;SDS011;50516;52.272;5.136;2022-07-06T10:50:06;5.22;;;1.42;;
64199;SDS011;50516;52.272;5.136;2022-07-06T10:55:32;2.53;;;1.10;;
64199;SDS011;50516;52.272;5.136;2022-07-06T10:58:00;4.82;;;1.52;;
64199;SDS011;50516;52.272;5.136;2022-07-06T11:00:41;4.72;;;1.65;;
64199;SDS011;50516;52.272;5.136;2022-07-06T11:05:57;2.67;;;1.27;;
64199;SDS011;50516;52.272;5.136;2022-07-06T11:08:40;4.32;;;1.40;;
64199;SDS011;50516;52.272;5.136;2022-07-06T11:11:15;5.32;;;1.35;;
64199;SDS011;50516;52.272;5.136;2022-07-06T11:16:29;2.30;;;1.30;;
64199;SDS011;50516;52.272;5.136;2022-07-06T11:19:11;5.75;;;1.67;;
64199;SDS011;50516;52.272;5.136;2022-07-06T11:24:21;4.57;;;1.83;;
64199;SDS011;50516;52.272;5.136;2022-07-06T11:26:52;3.45;;;1.30;;
64199;SDS011;50516;52.272;5.136;2022-07-06T11:29:20;2.58;;;1.20;;
64199;SDS011;50516;52.272;5.136;2022-07-06T11:31:46;2.70;;;1.38;;
64199;SDS011;50516;52.272;5.136;2022-07-06T11:34:16;3.90;;;2.03;;
64199;SDS011;50516;52.272;5.136;2022-07-06T11:36:47;5.75;;;1.55;;
64199;SDS011;50516;52.272;5.136;2022-07-06T11:39:14;1.80;;;1.10;;
64199;SDS011;50516;52.272;5.136;2022-07-06T11:41:40;3.45;;;1.42;;
64199;SDS011;50516;52.272;5.136;2022-07-06T11:44:07;2.75;;;1.48;;
64199;SDS011;50516;52.272;5.136;2022-07-06T11:46:33;3.05;;;1.35;;
64199;SDS011;50516;52.272;5.136;2022-07-06T11:49:00;5.53;;;1.60;;
64199;SDS011;50516;52.272;5.136;2022-07-06T11:51:28;3.72;;;1.40;;
64199;SDS011;50516;52.272;5.136;2022-07-06T11:53:58;2.92;;;1.48;;
64199;SDS011;50516;52.272;5.136;2022-07-06T11:56:26;5.40;;;1.30;;
64199;SDS011;50516;52.272;5.136;2022-07-06T11:58:53;5.30;;;1.70;;
64199;SDS011;50516;52.272;5.136;2022-07-06T12:01:20;3.70;;;1.45;;
64199;SDS011;50516;52.272;5.136;2022-07-06T12:03:48;3.40;;;1.45;;
64199;SDS011;50516;52.272;5.136;2022-07-06T12:06:20;3.40;;;1.45;;
64199;SDS011;50516;52.272;5.136;2022-07-06T12:08:47;1.65;;;1.20;;
64199;SDS011;50516;52.272;5.136;2022-07-06T12:11:25;2.83;;;1.50;;
64199;SDS011;50516;52.272;5.136;2022-07-06T12:13:53;2.80;;;1.40;;
64199;SDS011;50516;52.272;5.136;2022-07-06T12:16:20;5.22;;;1.70;;
64199;SDS011;50516;52.272;5.136;2022-07-06T12:18:48;4.95;;;1.70;;
64199;SDS011;50516;52.272;5.136;2022-07-06T12:21:15;2.90;;;1.63;;
64199;SDS011;50516;52.272;5.136;2022-07-06T12:26:13;5.07;;;1.70;;
64199;SDS011;50516;52.272;5.136;2022-07-06T12:28:40;3.45;;;1.67;;
64199;SDS011;50516;52.272;5.136;2022-07-06T12:31:05;2.80;;;1.90;;
64199;SDS011;50516;52.272;5.136;2022-07-06T12:33:31;2.63;;;1.52;;
64199;SDS011;50516;52.272;5.136;2022-07-06T12:35:57;4.80;;;1.67;;
64199;SDS011;50516;52.272;5.136;2022-07-06T12:38:33;3.78;;;1.60;;
64199;SDS011;50516;52.272;5.136;2022-07-06T12:40:58;4.35;;;1.48;;
64199;SDS011;50516;52.272;5.136;2022-07-06T12:43:40;4.20;;;1.60;;
64199;SDS011;50516;52.272;5.136;2022-07-06T12:49:01;5.10;;;2.13;;
64199;SDS011;50516;52.272;5.136;2022-07-06T12:51:28;6.50;;;1.90;;
64199;SDS011;50516;52.272;5.136;2022-07-06T12:54:13;4.95;;;1.67;;
64199;SDS011;50516;52.272;5.136;2022-07-06T12:56:55;2.23;;;1.50;;
64199;SDS011;50516;52.272;5.136;2022-07-06T12:59:31;2.40;;;1.30;;
64199;SDS011;50516;52.272;5.136;2022-07-06T13:01:58;3.17;;;1.45;;
64199;SDS011;50516;52.272;5.136;2022-07-06T13:04:24;4.60;;;1.70;;
64199;SDS011;50516;52.272;5.136;2022-07-06T13:06:51;5.03;;;2.00;;
64199;SDS011;50516;52.272;5.136;2022-07-06T13:09:17;3.80;;;1.95;;
64199;SDS011;50516;52.272;5.136;2022-07-06T13:11:44;2.42;;;1.20;;
64199;SDS011;50516;52.272;5.136;2022-07-06T13:14:10;4.15;;;1.83;;
64199;SDS011;50516;52.272;5.136;2022-07-06T13:16:36;3.22;;;1.65;;
64199;SDS011;50516;52.272;5.136;2022-07-06T13:19:01;2.55;;;1.42;;
64199;SDS011;50516;52.272;5.136;2022-07-06T13:21:27;3.83;;;1.83;;
64199;SDS011;50516;52.272;5.136;2022-07-06T13:23:52;3.78;;;1.60;;
64199;SDS011;50516;52.272;5.136;2022-07-06T13:26:18;3.00;;;1.70;;
64199;SDS011;50516;52.272;5.136;2022-07-06T13:28:43;4.15;;;1.65;;
64199;SDS011;50516;52.272;5.136;2022-07-06T13:31:08;3.00;;;1.63;;
64199;SDS011;50516;52.272;5.136;2022-07-06T13:33:34;4.85;;;1.67;;
64199;SDS011;50516;52.272;5.136;2022-07-06T13:36:00;2.17;;;1.52;;
64199;SDS011;50516;52.272;5.136;2022-07-06T13:38:26;3.85;;;1.77;;
64199;SDS011;50516;52.272;5.136;2022-07-06T13:40:51;3.17;;;1.80;;
64199;SDS011;50516;52.272;5.136;2022-07-06T13:43:17;5.18;;;1.90;;
64199;SDS011;50516;52.272;5.136;2022-07-06T13:45:43;4.68;;;1.90;;
64199;SDS011;50516;52.272;5.136;2022-07-06T13:48:08;7.70;;;2.15;;
64199;SDS011;50516;52.272;5.136;2022-07-06T13:50:34;6.50;;;1.70;;
64199;SDS011;50516;52.272;5.136;2022-07-06T13:52:59;3.53;;;1.63;;
64199;SDS011;50516;52.272;5.136;2022-07-06T13:55:24;5.65;;;1.50;;
64199;SDS011;50516;52.272;5.136;2022-07-06T13:57:50;2.83;;;1.85;;
64199;SDS011;50516;52.272;5.136;2022-07-06T14:00:16;5.80;;;1.98;;
64199;SDS011;50516;52.272;5.136;2022-07-06T14:02:43;3.72;;;1.88;;
64199;SDS011;50516;52.272;5.136;2022-07-06T14:05:09;4.82;;;1.63;;
64199;SDS011;50516;52.272;5.136;2022-07-06T14:07:34;3.80;;;1.58;;
64199;SDS011;50516;52.272;5.136;2022-07-06T14:10:00;4.55;;;1.95;;
64199;SDS011;50516;52.272;5.136;2022-07-06T14:12:25;4.28;;;2.22;;
64199;SDS011;50516;52.272;5.136;2022-07-06T14:14:51;5.05;;;2.10;;
64199;SDS011;50516;52.272;5.136;2022-07-06T14:17:16;8.23;;;2.70;;
64199;SDS011;50516;52.272;5.136;2022-07-06T14:19:42;5.35;;;2.30;;
64199;SDS011;50516;52.272;5.136;2022-07-06T14:22:07;4.97;;;2.03;;
64199;SDS011;50516;52.272;5.136;2022-07-06T14:24:33;3.78;;;2.30;;
64199;SDS011;50516;52.272;5.136;2022-07-06T14:26:59;7.03;;;3.13;;
64199;SDS011;50516;52.272;5.136;2022-07-06T14:29:25;5.60;;;2.22;;
64199;SDS011;50516;52.272;5.136;2022-07-06T14:31:50;5.65;;;2.20;;
64199;SDS011;50516;52.272;5.136;2022-07-06T14:34:16;8.43;;;2.60;;
64199;SDS011;50516;52.272;5.136;2022-07-06T14:36:41;6.57;;;2.85;;
64199;SDS011;50516;52.272;5.136;2022-07-06T14:39:07;9.38;;;3.17;;
64199;SDS011;50516;52.272;5.136;2022-07-06T14:41:32;6.32;;;2.80;;
64199;SDS011;50516;52.272;5.136;2022-07-06T14:43:57;6.72;;;2.60;;
64199;SDS011;50516;52.272;5.136;2022-07-06T14:46:23;8.30;;;3.20;;
64199;SDS011;50516;52.272;5.136;2022-07-06T14:48:48;11.00;;;3.55;;
64199;SDS011;50516;52.272;5.136;2022-07-06T14:51:13;10.25;;;3.17;;
64199;SDS011;50516;52.272;5.136;2022-07-06T14:53:39;5.85;;;3.03;;
64199;SDS011;50516;52.272;5.136;2022-07-06T14:56:04;9.18;;;3.38;;
64199;SDS011;50516;52.272;5.136;2022-07-06T14:58:30;6.57;;;2.85;;
64199;SDS011;50516;52.272;5.136;2022-07-06T15:00:55;8.38;;;3.40;;
64199;SDS011;50516;52.272;5.136;2022-07-06T15:03:21;9.80;;;3.78;;
64199;SDS011;50516;52.272;5.136;2022-07-06T15:05:46;7.70;;;3.83;;